Time;durP1;ratioP1;P1;durP2;ratioP2;P2;SDS_P1;SDS_P2;PMS_P1;PMS_P2;Temp;Humidity;BMP_temperature;BMP_pressure;BME280_temperature;BME280_humidity;BME280_pressure;Samples;Min_cycle;Max_cycle;Signal;HPM_P1;HPM_P2
2021/03/27 00:01:42;;;;;;;16.93;12.63;;;10.00;58.10;;;;;;6261377;28;20475;-63
2021/03/27 00:04:48;;;;;;;13.73;11.37;;;10.00;58.30;;;;;;6250832;28;20841;-63
2021/03/27 00:08:05;;;;;;;16.53;11.10;;;9.90;59.40;;;;;;6250294;28;21076;-62
2021/03/27 00:11:12;;;;;;;16.07;11.10;;;9.90;59.50;;;;;;6248516;28;20484;-62
2021/03/27 00:14:20;;;;;;;13.70;10.27;;;9.90;59.70;;;;;;6248760;28;20594;-62
2021/03/27 00:17:39;;;;;;;12.20;10.37;;;9.90;60.30;;;;;;6248042;28;20467;-62
2021/03/27 00:20:46;;;;;;;13.27;9.50;;;9.90;60.40;;;;;;6249295;28;20423;-63
2021/03/27 00:23:54;;;;;;;18.83;10.53;;;9.90;60.70;;;;;;6271443;28;20467;-63
2021/03/27 00:27:00;;;;;;;12.37;10.70;;;9.80;60.60;;;;;;6228800;28;627526;-63
2021/03/27 00:30:08;;;;;;;15.07;10.00;;;9.80;60.40;;;;;;6251606;28;20794;-63
2021/03/27 00:33:12;;;;;;;12.30;10.00;;;9.70;60.70;;;;;;6251345;28;20478;-63
2021/03/27 00:36:19;;;;;;;13.73;11.40;;;9.70;60.70;;;;;;6251020;28;20593;-62
2021/03/27 00:39:25;;;;;;;13.47;9.40;;;9.70;60.80;;;;;;6251357;28;20481;-63
2021/03/27 00:42:31;;;;;;;10.70;9.20;;;9.60;60.90;;;;;;6250885;28;20558;-63
2021/03/27 00:45:42;;;;;;;16.80;10.20;;;9.60;61.00;;;;;;6272489;28;20462;-63
2021/03/27 00:48:50;;;;;;;11.40;9.93;;;9.50;61.30;;;;;;6275576;28;20940;-62
2021/03/27 00:51:55;;;;;;;13.70;9.73;;;9.40;61.40;;;;;;6255814;28;20582;-63
2021/03/27 00:55:17;;;;;;;11.00;9.50;;;9.40;62.00;;;;;;6256299;28;20466;-63
2021/03/27 00:58:26;;;;;;;12.03;10.30;;;9.30;62.20;;;;;;6275613;28;20472;-63
2021/03/27 01:01:36;;;;;;;12.50;8.50;;;9.30;63.50;;;;;;6275918;28;20556;-62
2021/03/27 01:04:42;;;;;;;12.20;10.27;;;9.30;64.20;;;;;;6275473;28;20482;-63
2021/03/27 01:07:46;;;;;;;11.33;8.87;;;9.20;64.10;;;;;;6275272;28;20478;-63
2021/03/27 01:10:52;;;;;;;11.03;8.30;;;9.10;64.20;;;;;;6274818;28;20821;-63
2021/03/27 01:13:57;;;;;;;9.47;8.27;;;9.10;64.70;;;;;;6275299;28;20509;-63
2021/03/27 01:17:01;;;;;;;9.63;8.30;;;9.10;65.50;;;;;;6275254;28;20474;-63
2021/03/27 01:20:12;;;;;;;12.17;9.30;;;9.10;65.90;;;;;;6274916;28;20561;-63
2021/03/27 01:23:14;;;;;;;8.80;7.93;;;9.10;65.60;;;;;;6274689;28;20807;-63
2021/03/27 01:26:23;;;;;;;9.83;8.83;;;9.10;65.90;;;;;;6274288;28;20466;-63
2021/03/27 01:29:30;;;;;;;11.80;9.00;;;9.00;66.00;;;;;;6271936;28;20466;-63
2021/03/27 01:32:42;;;;;;;12.47;8.67;;;9.10;66.10;;;;;;6250202;28;20491;-62
2021/03/27 01:35:48;;;;;;;11.07;8.53;;;9.10;65.90;;;;;;6250320;28;20435;-62
2021/03/27 01:38:56;;;;;;;9.60;8.40;;;9.10;66.50;;;;;;6250357;28;20424;-63
2021/03/27 01:42:05;;;;;;;16.20;8.77;;;9.10;66.40;;;;;;6250683;28;20463;-63
2021/03/27 01:45:29;;;;;;;10.03;8.93;;;9.10;66.70;;;;;;6258126;28;20502;-62
2021/03/27 01:48:39;;;;;;;11.43;8.90;;;9.00;66.50;;;;;;6250080;28;20471;-62
2021/03/27 01:51:57;;;;;;;12.63;8.57;;;8.90;66.60;;;;;;6254381;28;20463;-62
2021/03/27 01:55:14;;;;;;;11.87;9.43;;;8.90;67.40;;;;;;6274480;28;20549;-61
2021/03/27 01:58:21;;;;;;;12.00;9.60;;;8.70;67.40;;;;;;6264947;28;20812;-61
2021/03/27 02:01:29;;;;;;;15.63;8.57;;;8.80;69.50;;;;;;6249504;28;20819;-61
2021/03/27 02:04:35;;;;;;;10.40;8.50;;;8.90;68.20;;;;;;6249664;28;20463;-62
2021/03/27 02:07:48;;;;;;;11.40;8.40;;;8.90;67.70;;;;;;6249557;28;20467;-62
2021/03/27 02:11:01;;;;;;;11.37;7.80;;;8.80;68.00;;;;;;6248391;28;20475;-62
2021/03/27 02:14:07;;;;;;;12.13;9.23;;;8.90;68.10;;;;;;6247284;28;20475;-62
2021/03/27 02:17:16;;;;;;;8.03;7.23;;;8.90;67.80;;;;;;6247368;28;20479;-62
2021/03/27 02:20:55;;;;;;;11.20;7.97;;;8.80;67.30;;;;;;6247276;28;20467;-62
2021/03/27 02:24:14;;;;;;;12.20;8.90;;;8.70;67.20;;;;;;6247960;28;20486;-62
2021/03/27 02:27:21;;;;;;;9.70;8.33;;;8.80;67.60;;;;;;6249202;28;20464;-62
2021/03/27 02:30:30;;;;;;;9.07;7.43;;;8.60;67.70;;;;;;6249305;28;20480;-62
2021/03/27 02:33:38;;;;;;;9.33;8.03;;;8.60;68.00;;;;;;6249390;28;20542;-62
2021/03/27 02:36:49;;;;;;;10.43;7.90;;;8.50;68.20;;;;;;6249751;28;20467;-62
2021/03/27 02:39:57;;;;;;;11.90;8.47;;;8.50;68.10;;;;;;6249233;28;20961;-62
2021/03/27 02:43:07;;;;;;;8.47;7.33;;;8.50;68.70;;;;;;6249444;28;20617;-62
2021/03/27 02:46:14;;;;;;;12.70;8.90;;;8.40;68.70;;;;;;6249275;28;20476;-62
2021/03/27 02:49:34;;;;;;;10.67;8.07;;;8.50;68.80;;;;;;6249213;28;20794;-62
2021/03/27 02:52:54;;;;;;;7.77;7.07;;;8.40;68.90;;;;;;6249295;28;20483;-62
2021/03/27 02:56:17;;;;;;;10.07;8.13;;;8.40;69.20;;;;;;6263269;28;20458;-62
2021/03/27 02:59:31;;;;;;;11.57;8.10;;;8.30;69.40;;;;;;6270910;28;20462;-62
2021/03/27 03:02:47;;;;;;;9.60;7.77;;;8.30;69.70;;;;;;6273645;28;20485;-62
2021/03/27 03:05:53;;;;;;;11.47;8.80;;;8.30;69.70;;;;;;6276362;28;20445;-63
2021/03/27 03:09:10;;;;;;;8.70;7.23;;;8.30;69.70;;;;;;6278334;28;20427;-62
2021/03/27 03:12:18;;;;;;;12.83;8.67;;;8.20;69.80;;;;;;6278151;28;20470;-62
2021/03/27 03:15:27;;;;;;;7.83;6.90;;;8.20;70.30;;;;;;6278078;28;20799;-62
2021/03/27 03:18:39;;;;;;;9.43;7.60;;;8.10;70.50;;;;;;6277874;28;20486;-62
2021/03/27 03:21:46;;;;;;;8.87;7.73;;;8.00;71.00;;;;;;6278235;28;20474;-62
2021/03/27 03:24:56;;;;;;;10.53;8.27;;;8.00;71.50;;;;;;6277706;28;20492;-62
2021/03/27 03:28:15;;;;;;;13.60;9.67;;;8.00;71.70;;;;;;6277855;28;20474;-62
2021/03/27 03:31:33;;;;;;;13.20;9.70;;;8.00;71.90;;;;;;6277972;28;20566;-62
2021/03/27 03:34:54;;;;;;;17.63;11.97;;;8.00;71.80;;;;;;6278212;28;20474;-62
2021/03/27 03:38:18;;;;;;;16.30;11.30;;;8.00;71.90;;;;;;6277969;28;20482;-62
2021/03/27 03:41:43;;;;;;;13.13;10.60;;;7.90;71.80;;;;;;6272647;28;20479;-62
2021/03/27 03:44:55;;;;;;;11.37;10.17;;;7.90;72.20;;;;;;6278041;28;20446;-62
2021/03/27 03:48:13;;;;;;;11.50;9.43;;;7.80;72.40;;;;;;6277923;28;20450;-62
2021/03/27 03:51:25;;;;;;;10.47;8.57;;;7.80;72.70;;;;;;6277454;28;20467;-62
2021/03/27 03:54:37;;;;;;;10.00;8.63;;;7.70;73.00;;;;;;6277363;28;20471;-62
2021/03/27 03:57:52;;;;;;;9.00;8.10;;;7.70;73.30;;;;;;6277619;28;20960;-62
2021/03/27 04:01:05;;;;;;;9.40;8.13;;;7.70;73.30;;;;;;6277187;28;20467;-62
2021/03/27 04:04:13;;;;;;;10.17;8.47;;;7.60;73.70;;;;;;6277175;28;20470;-62
2021/03/27 04:07:21;;;;;;;10.03;8.30;;;7.70;73.80;;;;;;6277191;28;20482;-62
2021/03/27 04:10:28;;;;;;;11.00;7.93;;;7.70;73.70;;;;;;6276967;28;20482;-62
2021/03/27 04:13:38;;;;;;;9.27;7.63;;;7.70;73.30;;;;;;6276933;28;20616;-62
2021/03/27 04:16:44;;;;;;;13.17;8.50;;;7.70;73.80;;;;;;6275812;28;20470;-62
2021/03/27 04:19:52;;;;;;;14.30;7.77;;;7.70;73.60;;;;;;6277145;28;20477;-62
2021/03/27 04:23:03;;;;;;;9.70;7.60;;;7.60;74.10;;;;;;6276428;28;20806;-62
2021/03/27 04:26:32;;;;;;;10.83;7.87;;;7.70;74.30;;;;;;6276333;28;20978;-62
2021/03/27 04:29:40;;;;;;;10.53;8.67;;;7.70;74.30;;;;;;6276645;28;20462;-62
2021/03/27 04:32:51;;;;;;;10.43;7.07;;;7.70;74.20;;;;;;6301536;28;20473;-62
2021/03/27 04:35:57;;;;;;;10.57;7.80;;;7.80;74.30;;;;;;6301066;28;20757;-62
2021/03/27 04:39:04;;;;;;;9.80;7.20;;;7.80;74.10;;;;;;6301473;28;20456;-61
2021/03/27 04:42:15;;;;;;;9.60;8.00;;;7.70;74.10;;;;;;6301028;28;20465;-61
2021/03/27 04:45:24;;;;;;;10.70;8.03;;;7.70;74.10;;;;;;6301208;28;20461;-61
2021/03/27 04:48:37;;;;;;;9.23;7.90;;;7.80;74.00;;;;;;6301308;28;20480;-61
2021/03/27 04:51:58;;;;;;;9.17;7.70;;;7.80;74.00;;;;;;6300899;28;20625;-63
2021/03/27 04:55:21;;;;;;;8.50;7.60;;;7.80;74.20;;;;;;6300505;28;20484;-63
2021/03/27 04:58:38;;;;;;;10.70;8.60;;;7.70;74.10;;;;;;6300708;28;20634;-62
2021/03/27 05:01:49;;;;;;;9.00;7.50;;;7.70;74.10;;;;;;6300863;28;20809;-62
2021/03/27 05:04:58;;;;;;;8.97;7.40;;;7.80;73.90;;;;;;6300452;28;20474;-63
2021/03/27 05:08:08;;;;;;;13.53;9.70;;;7.80;73.60;;;;;;6300383;28;20485;-62
2021/03/27 05:11:22;;;;;;;10.53;7.93;;;7.80;74.20;;;;;;6300042;28;21100;-62
2021/03/27 05:14:43;;;;;;;9.83;8.20;;;7.80;74.20;;;;;;6300238;28;20812;-62
2021/03/27 05:18:08;;;;;;;9.43;7.80;;;7.80;73.90;;;;;;6300231;28;20465;-62
2021/03/27 05:21:25;;;;;;;9.43;8.43;;;7.80;73.70;;;;;;6267376;28;20473;-62
2021/03/27 05:24:33;;;;;;;9.13;8.23;;;7.80;74.20;;;;;;6300577;28;20474;-62
2021/03/27 05:27:44;;;;;;;12.00;7.23;;;7.80;74.20;;;;;;6299373;28;20481;-62
2021/03/27 05:30:55;;;;;;;16.23;8.20;;;7.80;74.10;;;;;;6299976;28;20485;-62
2021/03/27 05:34:14;;;;;;;9.73;8.60;;;7.90;74.40;;;;;;6299981;28;20480;-62
2021/03/27 05:37:32;;;;;;;9.63;8.23;;;8.00;73.60;;;;;;6299934;28;20488;-62
2021/03/27 05:41:19;;;;;;;10.73;8.47;;;8.10;73.70;;;;;;6299512;28;20466;-62
2021/03/27 05:44:46;;;;;;;8.83;7.93;;;8.20;73.10;;;;;;6299701;28;20458;-63
2021/03/27 05:48:28;;;;;;;13.30;8.70;;;8.40;72.80;;;;;;6299775;28;20752;-62
2021/03/27 05:52:02;;;;;;;12.60;8.03;;;8.50;72.30;;;;;;6299704;28;20469;-62
2021/03/27 05:55:33;;;;;;;8.93;7.97;;;8.60;71.70;;;;;;6299643;28;20492;-62
2021/03/27 05:58:56;;;;;;;9.77;8.77;;;8.80;71.10;;;;;;6299404;28;20789;-62
2021/03/27 06:02:00;;;;;;;10.60;8.43;;;9.00;70.60;;;;;;6299749;28;20476;-62
2021/03/27 06:05:35;;;;;;;10.77;9.03;;;9.20;70.30;;;;;;6300113;28;20592;-62
2021/03/27 06:08:51;;;;;;;10.60;9.47;;;9.40;69.70;;;;;;6276945;28;20469;-62
2021/03/27 06:12:20;;;;;;;10.13;9.13;;;9.50;69.80;;;;;;6299308;28;20485;-62
2021/03/27 06:15:55;;;;;;;9.17;8.27;;;9.70;68.30;;;;;;6299546;28;20989;-62
2021/03/27 06:19:23;;;;;;;10.97;9.10;;;9.80;67.80;;;;;;6299439;28;20982;-61
2021/03/27 06:23:12;;;;;;;12.57;10.17;;;10.00;65.90;;;;;;6299815;28;20603;-62
2021/03/27 06:27:02;;;;;;;13.90;11.83;;;10.10;66.30;;;;;;6298771;28;20580;-61
2021/03/27 06:30:35;;;;;;;12.77;11.43;;;10.40;66.10;;;;;;6292952;28;20466;-65
2021/03/27 06:34:06;;;;;;;16.30;11.00;;;10.50;65.70;;;;;;6299500;28;20481;-64
2021/03/27 06:38:02;;;;;;;15.23;11.67;;;10.90;65.00;;;;;;6277903;28;20469;-65
2021/03/27 06:41:13;;;;;;;15.60;10.30;;;11.80;64.20;;;;;;6287000;28;20469;-66
2021/03/27 06:44:26;;;;;;;14.30;12.13;;;13.20;59.80;;;;;;6303762;28;20497;-65
2021/03/27 06:48:01;;;;;;;14.57;10.97;;;14.60;55.70;;;;;;6303758;28;20488;-65
2021/03/27 06:51:37;;;;;;;12.50;11.17;;;15.40;52.60;;;;;;6298695;28;20454;-65
2021/03/27 06:55:22;;;;;;;15.33;11.23;;;15.90;50.60;;;;;;6303634;28;20465;-65
2021/03/27 06:59:10;;;;;;;13.33;11.03;;;16.60;49.00;;;;;;6303525;28;20461;-65
2021/03/27 07:02:51;;;;;;;13.23;10.50;;;17.40;47.20;;;;;;6227219;28;20472;-65
2021/03/27 07:06:35;;;;;;;12.70;10.30;;;18.10;43.70;;;;;;6244904;28;20566;-64
2021/03/27 07:10:21;;;;;;;10.63;9.70;;;18.80;42.20;;;;;;6295568;28;20970;-65
2021/03/27 07:14:00;;;;;;;10.20;9.20;;;19.40;39.30;;;;;;6303184;28;20478;-65
2021/03/27 07:17:23;;;;;;;11.30;8.73;;;20.50;38.00;;;;;;6303190;28;20295;-65
2021/03/27 07:20:40;;;;;;;10.37;9.30;;;22.00;36.20;;;;;;6302940;28;20238;-65
2021/03/27 07:24:26;;;;;;;12.23;9.90;;;23.50;33.20;;;;;;6302953;28;20220;-65
2021/03/27 07:28:17;;;;;;;12.00;8.97;;;25.00;31.60;;;;;;6296370;28;20584;-66
2021/03/27 07:31:38;;;;;;;11.60;9.17;;;26.60;28.70;;;;;;6302841;28;20302;-66
2021/03/27 07:35:06;;;;;;;12.57;10.27;;;27.50;27.20;;;;;;6303086;28;20625;-66
2021/03/27 07:38:38;;;;;;;10.93;8.97;;;27.90;26.60;;;;;;6303005;28;20687;-67
2021/03/27 07:41:50;;;;;;;10.97;9.97;;;29.00;25.40;;;;;;6302515;28;20237;-65
2021/03/27 07:45:05;;;;;;;11.77;10.70;;;29.70;24.60;;;;;;6302441;28;20602;-65
2021/03/27 07:48:41;;;;;;;11.57;10.37;;;30.50;23.70;;;;;;6302674;28;20245;-66
2021/03/27 07:52:06;;;;;;;9.87;8.97;;;30.90;23.20;;;;;;6301972;28;20230;-66
2021/03/27 07:55:35;;;;;;;12.40;9.87;;;31.00;22.70;;;;;;6302183;28;20230;-67
2021/03/27 07:59:20;;;;;;;10.82;9.82;;;31.40;22.40;;;;;;6294438;28;20259;-66
2021/03/27 08:02:54;;;;;;;10.82;9.82;;;32.70;21.80;;;;;;6301874;28;20569;-66
2021/03/27 08:06:10;;;;;;;10.90;9.90;;;33.80;20.60;;;;;;6279695;28;20221;-66
2021/03/27 08:09:19;;;;;;;10.75;9.68;;;34.80;20.20;;;;;;6302096;28;20222;-67
2021/03/27 08:12:57;;;;;;;12.55;11.40;;;35.50;19.90;;;;;;6301785;28;20230;-67
2021/03/27 08:16:41;;;;;;;12.30;11.13;;;36.70;19.00;;;;;;6301674;28;20234;-67
2021/03/27 08:20:02;;;;;;;13.52;12.20;;;37.00;17.90;;;;;;6301213;28;20237;-67
2021/03/27 08:23:18;;;;;;;13.45;12.25;;;36.50;18.40;;;;;;6300559;28;20237;-67
2021/03/27 08:26:44;;;;;;;15.27;13.77;;;36.90;18.30;;;;;;6300679;28;20676;-66
2021/03/27 08:30:19;;;;;;;14.15;12.95;;;37.40;18.20;;;;;;6276684;28;20310;-65
2021/03/27 08:33:45;;;;;;;14.02;12.73;;;38.40;17.90;;;;;;6251672;28;20227;-66
2021/03/27 08:37:01;;;;;;;13.52;12.07;;;38.40;17.80;;;;;;6270640;28;20666;-66
2021/03/27 08:40:33;;;;;;;13.65;12.23;;;38.20;17.60;;;;;;6286867;28;20223;-65
2021/03/27 08:44:11;;;;;;;13.45;12.07;;;39.10;17.00;;;;;;6284599;28;20277;-66
2021/03/27 08:47:36;;;;;;;13.63;12.40;;;39.30;16.50;;;;;;6262614;28;20231;-66
2021/03/27 08:51:11;;;;;;;14.57;13.30;;;39.20;16.40;;;;;;6276584;28;20215;-66
2021/03/27 08:55:07;;;;;;;16.08;14.52;;;38.50;16.90;;;;;;6289071;28;20227;-68
2021/03/27 08:58:34;;;;;;;14.63;13.32;;;38.80;16.80;;;;;;6289017;28;20665;-68
2021/03/27 09:02:24;;;;;;;14.27;13.02;;;40.20;16.40;;;;;;6282308;28;20238;-66
2021/03/27 09:05:41;;;;;;;15.05;13.65;;;42.00;15.60;;;;;;6219501;28;20252;-67
2021/03/27 09:08:48;;;;;;;14.40;13.23;;;43.30;14.80;;;;;;6287758;28;20227;-66
2021/03/27 09:12:32;;;;;;;16.02;14.82;;;43.70;14.50;;;;;;6286075;28;20215;-66
2021/03/27 09:15:58;;;;;;;15.40;14.25;;;43.70;14.40;;;;;;6229339;28;20822;-67
2021/03/27 09:19:51;;;;;;;16.63;14.85;;;42.60;14.60;;;;;;6298149;28;20237;-67
2021/03/27 09:23:11;;;;;;;16.42;13.10;;;40.90;15.20;;;;;;6296538;28;20222;-67
2021/03/27 09:26:48;;;;;;;14.73;13.52;;;40.10;15.60;;;;;;6299227;28;20253;-68
2021/03/27 09:30:16;;;;;;;17.90;16.23;;;40.90;16.00;;;;;;6267292;28;20645;-67
2021/03/27 09:33:27;;;;;;;16.10;14.48;;;42.60;15.20;;;;;;6276963;28;20223;-71
2021/03/27 09:36:36;;;;;;;15.27;14.07;;;44.40;14.40;;;;;;6293692;28;20230;-68
2021/03/27 09:39:49;;;;;;;15.77;14.52;;;45.30;14.20;;;;;;6292581;28;20233;-66
2021/03/27 09:43:13;;;;;;;17.20;15.75;;;44.00;14.60;;;;;;6279594;28;20222;-66
2021/03/27 09:46:25;;;;;;;15.43;14.15;;;44.90;14.30;;;;;;6299178;28;20235;-69
2021/03/27 09:49:33;;;;;;;16.30;14.50;;;45.90;13.80;;;;;;6299362;28;20296;-68
2021/03/27 09:52:40;;;;;;;16.25;14.85;;;43.70;14.60;;;;;;6299088;28;20226;-69
2021/03/27 09:55:50;;;;;;;16.92;15.60;;;44.10;15.20;;;;;;6299240;28;20254;-70
2021/03/27 09:59:17;;;;;;;16.40;15.00;;;43.90;14.20;;;;;;6274431;28;20242;-68
2021/03/27 10:02:29;;;;;;;16.60;14.95;;;42.70;15.20;;;;;;6274544;28;20235;-68
2021/03/27 10:05:45;;;;;;;16.10;14.73;;;43.00;15.00;;;;;;6274523;28;20227;-64
2021/03/27 10:08:56;;;;;;;17.00;15.30;;;42.60;15.30;;;;;;6257433;28;20219;-66
2021/03/27 10:12:02;;;;;;;16.75;15.45;;;42.90;15.10;;;;;;6274591;28;20237;-67
2021/03/27 10:15:16;;;;;;;15.98;14.57;;;41.60;15.60;;;;;;6267738;28;20224;-67
2021/03/27 10:18:29;;;;;;;17.30;15.85;;;42.20;15.50;;;;;;6254532;28;20712;-68
2021/03/27 10:21:46;;;;;;;17.45;16.17;;;41.40;15.50;;;;;;6254616;28;20245;-66
2021/03/27 10:24:57;;;;;;;16.95;15.45;;;40.40;16.00;;;;;;6278812;28;20258;-67
2021/03/27 10:28:22;;;;;;;16.52;15.23;;;39.50;16.90;;;;;;6278949;28;20239;-67
2021/03/27 10:31:29;;;;;;;17.10;15.63;;;38.30;17.00;;;;;;6267378;28;20311;-65
2021/03/27 10:34:39;;;;;;;19.50;17.52;;;37.10;17.90;;;;;;6252801;28;20246;-67
2021/03/27 10:37:44;;;;;;;19.63;17.85;;;35.40;18.80;;;;;;6253250;28;20231;-67
2021/03/27 10:40:49;;;;;;;18.25;16.63;;;34.20;19.80;;;;;;6253409;28;20231;-66
2021/03/27 10:44:03;;;;;;;19.33;17.63;;;33.50;20.10;;;;;;6268391;28;20537;-67
2021/03/27 10:47:10;;;;;;;19.77;18.00;;;32.50;20.60;;;;;;6277974;28;20223;-66
2021/03/27 10:50:21;;;;;;;21.75;19.55;;;31.10;22.30;;;;;;6278720;28;20227;-67
2021/03/27 10:53:32;;;;;;;22.15;19.95;;;29.20;23.10;;;;;;6278492;28;20685;-68
2021/03/27 10:56:47;;;;;;;20.00;18.00;;;28.70;24.00;;;;;;6278498;28;20243;-66
2021/03/27 11:00:03;;;;;;;20.63;18.23;;;28.40;24.40;;;;;;6278384;28;20636;-67
2021/03/27 11:03:39;;;;;;;20.60;18.50;;;28.10;24.60;;;;;;6278430;28;20242;-68
2021/03/27 11:07:18;;;;;;;21.27;19.30;;;27.80;24.70;;;;;;6278213;28;20231;-71
2021/03/27 11:10:46;;;;;;;20.37;18.43;;;27.20;25.40;;;;;;6277958;28;20668;-68
2021/03/27 11:14:15;;;;;;;19.97;18.07;;;27.00;25.60;;;;;;6277959;28;20707;-68
2021/03/27 11:17:50;;;;;;;20.33;17.03;;;26.80;25.50;;;;;;6257682;28;20230;-68
2021/03/27 11:21:03;;;;;;;19.70;17.80;;;26.90;25.60;;;;;;6302939;28;20206;-65
2021/03/27 11:24:25;;;;;;;18.70;17.00;;;26.80;25.50;;;;;;6286126;28;20223;-65
2021/03/27 11:27:55;;;;;;;20.40;17.57;;;26.90;26.10;;;;;;6284548;28;20226;-65
2021/03/27 11:31:29;;;;;;;19.60;17.03;;;26.80;25.30;;;;;;6302074;28;20680;-65
2021/03/27 11:34:36;;;;;;;18.17;16.23;;;26.30;25.40;;;;;;6302460;28;20237;-66
2021/03/27 11:38:07;;;;;;;21.50;17.83;;;26.40;25.80;;;;;;6302378;28;20706;-66
2021/03/27 11:41:21;;;;;;;18.57;16.67;;;26.70;25.40;;;;;;6301806;28;20562;-66
2021/03/27 11:44:40;;;;;;;19.27;16.87;;;26.20;25.70;;;;;;6301930;28;20223;-66
2021/03/27 11:47:55;;;;;;;20.80;17.60;;;26.00;25.80;;;;;;6302348;28;20207;-65
2021/03/27 11:51:08;;;;;;;18.37;16.50;;;26.00;26.00;;;;;;6301601;28;20187;-66
2021/03/27 11:54:28;;;;;;;19.70;16.47;;;26.20;25.70;;;;;;6294286;28;20311;-66
2021/03/27 11:57:45;;;;;;;20.20;17.63;;;26.40;25.30;;;;;;6286861;28;20317;-66
2021/03/27 12:01:01;;;;;;;20.63;18.37;;;26.00;25.70;;;;;;6299977;28;20231;-67
2021/03/27 12:04:23;;;;;;;24.47;18.30;;;25.80;25.60;;;;;;6287926;28;20578;-67
2021/03/27 12:07:33;;;;;;;18.53;16.37;;;26.00;25.80;;;;;;6292713;28;20231;-67
2021/03/27 12:10:44;;;;;;;18.30;16.50;;;25.80;25.70;;;;;;6282366;28;20226;-66
2021/03/27 12:13:58;;;;;;;19.37;17.37;;;25.70;26.00;;;;;;6278054;28;20235;-66
2021/03/27 12:17:15;;;;;;;20.73;17.77;;;25.40;26.40;;;;;;6293997;28;20308;-66
2021/03/27 12:20:28;;;;;;;20.80;16.40;;;25.20;26.80;;;;;;6301213;28;20230;-67
2021/03/27 12:23:40;;;;;;;19.30;17.17;;;25.40;26.50;;;;;;6281723;28;20238;-66
2021/03/27 12:26:57;;;;;;;18.10;15.90;;;25.60;26.10;;;;;;6287050;28;20235;-65
2021/03/27 12:30:09;;;;;;;20.40;18.00;;;26.00;25.80;;;;;;6281240;28;21314;-66
2021/03/27 12:33:14;;;;;;;17.50;15.80;;;26.10;25.80;;;;;;6277209;28;20227;-66
2021/03/27 12:36:23;;;;;;;17.43;15.47;;;26.30;25.40;;;;;;6277210;28;20609;-66
2021/03/27 12:39:30;;;;;;;17.97;15.90;;;26.20;25.20;;;;;;6276584;28;20224;-66
2021/03/27 12:42:37;;;;;;;17.50;14.97;;;26.00;25.30;;;;;;6277063;28;20242;-68
2021/03/27 12:45:46;;;;;;;19.63;14.53;;;25.90;25.40;;;;;;6279787;28;20230;-69
2021/03/27 12:49:09;;;;;;;17.73;15.17;;;25.90;24.80;;;;;;6282263;28;20226;-66
2021/03/27 12:52:24;;;;;;;18.80;15.77;;;25.70;24.60;;;;;;6282833;28;20584;-64
2021/03/27 12:55:38;;;;;;;17.73;15.70;;;25.30;25.00;;;;;;6289179;28;20700;-65
2021/03/27 12:58:52;;;;;;;16.17;14.30;;;25.30;24.80;;;;;;6274541;28;20581;-65
2021/03/27 13:02:12;;;;;;;14.70;13.23;;;25.30;24.60;;;;;;6272719;28;20242;-67
2021/03/27 13:05:24;;;;;;;15.00;13.37;;;24.90;24.70;;;;;;6273021;28;20239;-66
2021/03/27 13:08:36;;;;;;;16.40;14.00;;;24.70;24.90;;;;;;6273470;28;20254;-67
2021/03/27 13:11:46;;;;;;;14.63;13.07;;;24.40;25.00;;;;;;6273145;28;20241;-66
2021/03/27 13:15:15;;;;;;;16.73;13.30;;;24.60;24.70;;;;;;6274320;28;20212;-67
2021/03/27 13:18:49;;;;;;;14.47;12.40;;;24.50;24.60;;;;;;6274706;28;20237;-65
2021/03/27 13:22:12;;;;;;;13.07;11.20;;;24.40;24.30;;;;;;6275790;28;20223;-65
2021/03/27 13:25:24;;;;;;;15.17;12.33;;;24.60;23.80;;;;;;6275727;28;20232;-66
2021/03/27 13:28:33;;;;;;;13.50;12.13;;;24.70;23.80;;;;;;6275175;28;20232;-65
2021/03/27 13:31:45;;;;;;;16.10;12.80;;;24.80;24.60;;;;;;6275063;28;20348;-66
2021/03/27 13:35:02;;;;;;;14.43;12.93;;;24.50;24.50;;;;;;6275664;28;20558;-66
2021/03/27 13:38:11;;;;;;;14.97;12.07;;;24.40;24.70;;;;;;6275614;28;20243;-66
2021/03/27 13:41:47;;;;;;;12.50;11.20;;;24.50;24.60;;;;;;6274757;28;20593;-66
2021/03/27 13:44:56;;;;;;;13.20;11.80;;;24.70;24.50;;;;;;6250885;28;20215;-66
2021/03/27 13:48:11;;;;;;;13.40;12.00;;;24.90;24.20;;;;;;6250001;28;20197;-66
2021/03/27 13:51:29;;;;;;;13.10;11.90;;;25.00;24.30;;;;;;6249839;28;20878;-66
2021/03/27 13:54:45;;;;;;;14.33;12.93;;;24.80;24.50;;;;;;6250069;28;20551;-66
2021/03/27 13:58:05;;;;;;;14.60;10.63;;;24.60;24.50;;;;;;6250098;28;20743;-68
2021/03/27 14:01:17;;;;;;;12.37;10.97;;;24.60;24.50;;;;;;6249850;28;20701;-66
2021/03/27 14:04:25;;;;;;;11.17;9.83;;;24.70;23.80;;;;;;6249696;28;20224;-67
2021/03/27 14:07:35;;;;;;;14.50;11.73;;;24.50;23.60;;;;;;6249737;28;20740;-66
2021/03/27 14:10:59;;;;;;;14.20;11.97;;;23.80;23.60;;;;;;6249628;28;20617;-66
2021/03/27 14:14:06;;;;;;;12.90;10.93;;;23.80;24.70;;;;;;6249918;28;20233;-66
2021/03/27 14:17:23;;;;;;;12.00;10.70;;;23.80;24.60;;;;;;6249477;28;20313;-66
2021/03/27 14:20:42;;;;;;;12.90;10.40;;;23.70;25.50;;;;;;6245056;28;20232;-66
2021/03/27 14:24:05;;;;;;;11.90;10.10;;;23.70;25.50;;;;;;6249569;28;20658;-66
2021/03/27 14:27:36;;;;;;;12.97;9.60;;;23.80;25.80;;;;;;6249524;28;20232;-67
2021/03/27 14:31:05;;;;;;;11.20;10.03;;;23.80;26.10;;;;;;6246794;28;20228;-66
2021/03/27 14:34:48;;;;;;;15.57;10.27;;;23.80;25.80;;;;;;6249769;28;20232;-67
2021/03/27 14:38:06;;;;;;;10.57;9.57;;;23.60;26.10;;;;;;6249920;28;20693;-67
2021/03/27 14:41:18;;;;;;;11.73;10.53;;;23.70;25.90;;;;;;6249022;28;20800;-67
2021/03/27 14:44:30;;;;;;;12.67;9.63;;;23.70;25.80;;;;;;6249939;28;20248;-67
2021/03/27 14:47:55;;;;;;;11.73;9.53;;;23.50;25.70;;;;;;6250367;28;20225;-67
2021/03/27 14:51:03;;;;;;;5.97;5.37;;;23.40;25.30;;;;;;6249638;28;20193;-65
2021/03/27 14:54:31;;;;;;;7.93;6.20;;;23.20;27.90;;;;;;6252295;28;20653;-65
2021/03/27 14:57:44;;;;;;;8.80;7.40;;;23.00;28.50;;;;;;6273949;28;20574;-65
2021/03/27 15:01:10;;;;;;;10.60;7.70;;;22.60;28.80;;;;;;6275127;28;20223;-66
2021/03/27 15:04:21;;;;;;;8.33;7.53;;;22.30;29.40;;;;;;6278356;28;20685;-66
2021/03/27 15:07:28;;;;;;;8.77;7.67;;;22.10;29.80;;;;;;6278388;28;20238;-66
2021/03/27 15:10:49;;;;;;;11.33;7.80;;;21.90;30.40;;;;;;6278415;28;20231;-65
2021/03/27 15:13:58;;;;;;;10.53;7.60;;;21.60;30.80;;;;;;6278647;28;20247;-65
2021/03/27 15:17:15;;;;;;;8.47;7.17;;;21.40;31.30;;;;;;6278737;28;20238;-65
2021/03/27 15:20:28;;;;;;;11.13;8.23;;;21.30;31.50;;;;;;6278214;28;20406;-65
2021/03/27 15:23:43;;;;;;;9.20;7.40;;;21.20;32.30;;;;;;6273214;28;20574;-65
2021/03/27 15:27:16;;;;;;;8.03;7.30;;;21.00;32.70;;;;;;6253220;28;20241;-65
2021/03/27 15:30:26;;;;;;;9.30;7.20;;;21.00;33.30;;;;;;6253234;28;20229;-65
2021/03/27 15:33:53;;;;;;;8.40;7.40;;;20.90;33.40;;;;;;6253197;28;20244;-66
2021/03/27 15:37:03;;;;;;;8.00;7.20;;;20.80;33.90;;;;;;6253232;28;20229;-66
2021/03/27 15:40:12;;;;;;;9.50;6.50;;;20.70;34.40;;;;;;6252776;28;20678;-66
2021/03/27 15:43:23;;;;;;;8.30;7.50;;;20.50;34.70;;;;;;6253288;28;20237;-65
2021/03/27 15:46:33;;;;;;;10.37;8.20;;;20.40;35.20;;;;;;6252604;28;20678;-65
2021/03/27 15:49:43;;;;;;;8.30;7.40;;;20.30;35.60;;;;;;6253515;28;20225;-65
2021/03/27 15:52:50;;;;;;;7.00;6.20;;;20.20;36.00;;;;;;6252444;28;20319;-66
2021/03/27 15:56:18;;;;;;;8.00;7.20;;;20.10;37.20;;;;;;6252425;28;20232;-65
2021/03/27 15:59:51;;;;;;;8.17;7.37;;;20.00;37.70;;;;;;6260861;28;20228;-65
2021/03/27 16:03:26;;;;;;;7.33;6.63;;;19.80;37.50;;;;;;6272381;28;20220;-66
2021/03/27 16:06:40;;;;;;;6.70;6.00;;;19.60;38.20;;;;;;6234244;28;20243;-66
2021/03/27 16:09:53;;;;;;;7.47;6.70;;;19.40;38.80;;;;;;6251480;28;20244;-66
2021/03/27 16:13:34;;;;;;;6.50;5.80;;;19.30;39.40;;;;;;6264580;28;20342;-65
2021/03/27 16:17:00;;;;;;;7.73;6.33;;;19.20;39.80;;;;;;6272551;28;20700;-63
2021/03/27 16:20:25;;;;;;;7.00;6.30;;;19.20;39.60;;;;;;6274601;28;20232;-64
2021/03/27 16:23:39;;;;;;;6.03;5.47;;;19.20;39.80;;;;;;6250685;28;20232;-62
2021/03/27 16:27:09;;;;;;;7.03;4.90;;;18.90;41.00;;;;;;6245680;28;20236;-62
2021/03/27 16:30:21;;;;;;;7.90;5.00;;;18.80;40.90;;;;;;6251583;28;20306;-61
2021/03/27 16:33:33;;;;;;;5.97;5.47;;;18.70;41.20;;;;;;6270089;28;20232;-61
2021/03/27 16:36:45;;;;;;;6.77;5.57;;;18.60;41.30;;;;;;6274509;28;20668;-61
2021/03/27 16:39:59;;;;;;;8.40;5.20;;;18.50;41.60;;;;;;6274240;28;20705;-62
2021/03/27 16:43:10;;;;;;;6.03;5.53;;;18.50;41.90;;;;;;6275872;28;20239;-62
2021/03/27 16:46:20;;;;;;;7.93;5.73;;;18.50;42.10;;;;;;6274789;28;20620;-62
2021/03/27 16:49:31;;;;;;;5.97;5.40;;;18.40;42.20;;;;;;6275101;28;20227;-62
2021/03/27 16:52:39;;;;;;;8.30;6.00;;;18.30;42.20;;;;;;6275910;28;20228;-61
2021/03/27 16:55:51;;;;;;;6.93;5.03;;;18.30;42.40;;;;;;6275052;28;20227;-60
2021/03/27 16:59:04;;;;;;;5.67;5.17;;;18.20;42.60;;;;;;6275674;28;20573;-60